Cincinnati, OH (45201)

12:09 AM EST on December 03, 2016 (GMT -0500)
Norwood | | Change Station

Elev 620 ft 39.15 °N, 84.45 °W | Updated 7 seconds ago

Overcast
Overcast
38.2 °F
Feels Like 38 °F
N
1.0
Wind Variable Wind from WNW

Today
High -- | Low -- °F
--% Chance of Precip.
Yesterday
High -- | Low -- °F
Precip. -- in
Pressure 30.35 in
Visibility 10.0 miles
Clouds Few 2300 ft
Overcast 3200 ft
Windchill 38 °F
Dew Point 34 °F
Humidity 85%
Rainfall 0.00 in
Snow Depth Not available.
7:40 AM 5:15 PM
Waxing Crescent, 12% visible
METAR KLUK 030453Z AUTO 35005KT 10SM FEW023 OVC032 04/01 A3034 RMK AO2 SLP278 T00390011 400500006
Pressure 30.35 in
Visibility 10.0 miles
Clouds Few 2300 ft
Overcast 3200 ft
Windchill 38 °F
Dew Point 34 °F
Humidity 85%
Rainfall 0.00 in
Snow Depth Not available.
7:40 AM 5:15 PM
Waxing Crescent, 12% visible
METAR KLUK 030453Z AUTO 35005KT 10SM FEW023 OVC032 04/01 A3034 RMK AO2 SLP278 T00390011 400500006

10-Day Weather Forecast

Almanac

Astronomy

Dec. 03, 2016 Rise Set
Actual Time
Civil Twilight
Nautical Twilight
Astronomical Twilight
Moon
Length of Visible Light
Length of Day
Tomorrow will be .
, % of the Moon is Illuminated

Today's Extremes

State Highs State Lows

Community

WunderPhotos

Upload Photos

1,955,411 photos uploaded!

WunderBlog® & News

Nearby

Air Quality

  Air Quality AQ Index Pollutant
Not available.

Snow Depth

Station Depth Elevation

Earthquake Activity

City Distance Mag. Time & Date
Minimum magnitude displayed is 2.5.

Coastal Water Temperatures

Place Temperature

Stations

Nearby Weather Stations

Station Location Temp. Windchill Dew Point Humidity Wind Precip. Elev Updated Type
                   

Watches & Warnings

There are currently no watches in effect.